sensor_id;sensor_type;location;lat;lon;timestamp;temperature;humidity
23160;DHT22;11748;50.844;4.396;2022-11-23T00:01:20;10.80;99.90
23160;DHT22;11748;50.844;4.396;2022-11-23T00:03:48;10.70;99.90
23160;DHT22;11748;50.844;4.396;2022-11-23T00:06:15;10.70;99.90
23160;DHT22;11748;50.844;4.396;2022-11-23T00:08:41;10.70;99.90
23160;DHT22;11748;50.844;4.396;2022-11-23T00:11:07;10.80;99.90
23160;DHT22;11748;50.844;4.396;2022-11-23T00:13:33;10.60;99.90
23160;DHT22;11748;50.844;4.396;2022-11-23T00:16:06;10.50;99.90
23160;DHT22;11748;50.844;4.396;2022-11-23T00:18:32;10.30;99.90
23160;DHT22;11748;50.844;4.396;2022-11-23T00:20:57;10.50;99.90
23160;DHT22;11748;50.844;4.396;2022-11-23T00:23:23;10.50;99.90
23160;DHT22;11748;50.844;4.396;2022-11-23T00:25:48;10.60;99.90
23160;DHT22;11748;50.844;4.396;2022-11-23T00:28:14;10.50;99.90
23160;DHT22;11748;50.844;4.396;2022-11-23T00:30:40;10.60;99.90
23160;DHT22;11748;50.844;4.396;2022-11-23T00:33:05;10.40;99.90
23160;DHT22;11748;50.844;4.396;2022-11-23T00:35:31;10.30;99.90
23160;DHT22;11748;50.844;4.396;2022-11-23T00:37:57;10.50;99.90
23160;DHT22;11748;50.844;4.396;2022-11-23T00:40:22;10.70;99.90
23160;DHT22;11748;50.844;4.396;2022-11-23T00:42:48;10.50;99.90
23160;DHT22;11748;50.844;4.396;2022-11-23T00:45:14;10.40;99.90
23160;DHT22;11748;50.844;4.396;2022-11-23T00:47:39;10.40;99.90
23160;DHT22;11748;50.844;4.396;2022-11-23T00:50:05;10.50;99.90
23160;DHT22;11748;50.844;4.396;2022-11-23T00:52:31;10.60;99.90
23160;DHT22;11748;50.844;4.396;2022-11-23T00:54:56;10.60;99.90
23160;DHT22;11748;50.844;4.396;2022-11-23T00:57:22;10.40;99.90
23160;DHT22;11748;50.844;4.396;2022-11-23T00:59:48;10.50;99.90
23160;DHT22;11748;50.844;4.396;2022-11-23T01:02:13;10.50;99.90
23160;DHT22;11748;50.844;4.396;2022-11-23T01:04:39;10.60;99.90
23160;DHT22;11748;50.844;4.396;2022-11-23T01:07:05;10.60;99.90
23160;DHT22;11748;50.844;4.396;2022-11-23T01:09:32;10.50;99.90
23160;DHT22;11748;50.844;4.396;2022-11-23T01:11:58;10.60;99.90
23160;DHT22;11748;50.844;4.396;2022-11-23T01:14:24;10.70;99.90
23160;DHT22;11748;50.844;4.396;2022-11-23T01:16:50;10.80;99.90
23160;DHT22;11748;50.844;4.396;2022-11-23T01:19:17;10.90;99.90
23160;DHT22;11748;50.844;4.396;2022-11-23T01:21:43;10.90;99.90
23160;DHT22;11748;50.844;4.396;2022-11-23T01:24:21;11.00;99.90
23160;DHT22;11748;50.844;4.396;2022-11-23T01:26:51;10.90;99.90
23160;DHT22;11748;50.844;4.396;2022-11-23T01:29:17;10.80;99.90
23160;DHT22;11748;50.844;4.396;2022-11-23T01:31:43;10.90;99.90
23160;DHT22;11748;50.844;4.396;2022-11-23T01:34:11;10.90;99.90
23160;DHT22;11748;50.844;4.396;2022-11-23T01:36:38;10.40;99.90
23160;DHT22;11748;50.844;4.396;2022-11-23T01:39:04;10.40;99.90
23160;DHT22;11748;50.844;4.396;2022-11-23T01:41:35;10.60;99.90
23160;DHT22;11748;50.844;4.396;2022-11-23T01:46:49;10.90;99.90
23160;DHT22;11748;50.844;4.396;2022-11-23T01:49:15;10.90;99.90
23160;DHT22;11748;50.844;4.396;2022-11-23T01:51:44;10.80;99.90
23160;DHT22;11748;50.844;4.396;2022-11-23T01:54:15;10.80;99.90
23160;DHT22;11748;50.844;4.396;2022-11-23T01:56:46;10.70;99.90
23160;DHT22;11748;50.844;4.396;2022-11-23T01:59:16;10.70;99.90
23160;DHT22;11748;50.844;4.396;2022-11-23T02:01:44;11.00;99.90
23160;DHT22;11748;50.844;4.396;2022-11-23T02:04:13;11.00;99.90
23160;DHT22;11748;50.844;4.396;2022-11-23T02:06:42;11.00;99.90
23160;DHT22;11748;50.844;4.396;2022-11-23T02:09:09;10.80;99.90
23160;DHT22;11748;50.844;4.396;2022-11-23T02:11:35;10.80;99.90
23160;DHT22;11748;50.844;4.396;2022-11-23T02:14:01;10.70;99.90
23160;DHT22;11748;50.844;4.396;2022-11-23T02:16:27;10.60;99.90
23160;DHT22;11748;50.844;4.396;2022-11-23T02:18:54;10.50;99.90
23160;DHT22;11748;50.844;4.396;2022-11-23T02:21:20;10.70;99.90
23160;DHT22;11748;50.844;4.396;2022-11-23T02:23:51;10.40;99.90
23160;DHT22;11748;50.844;4.396;2022-11-23T02:26:25;10.50;99.90
23160;DHT22;11748;50.844;4.396;2022-11-23T02:31:41;10.90;99.90
23160;DHT22;11748;50.844;4.396;2022-11-23T02:34:06;10.90;99.90
23160;DHT22;11748;50.844;4.396;2022-11-23T02:36:40;11.00;99.90
23160;DHT22;11748;50.844;4.396;2022-11-23T02:39:36;10.90;99.90
23160;DHT22;11748;50.844;4.396;2022-11-23T02:42:03;10.90;99.90
23160;DHT22;11748;50.844;4.396;2022-11-23T02:46:55;10.80;99.90
23160;DHT22;11748;50.844;4.396;2022-11-23T02:49:22;10.70;99.90
23160;DHT22;11748;50.844;4.396;2022-11-23T02:51:48;10.70;99.90
23160;DHT22;11748;50.844;4.396;2022-11-23T02:54:14;10.80;99.90
23160;DHT22;11748;50.844;4.396;2022-11-23T02:56:39;10.70;99.90
23160;DHT22;11748;50.844;4.396;2022-11-23T02:59:05;10.60;99.90
23160;DHT22;11748;50.844;4.396;2022-11-23T03:01:31;10.70;99.90
23160;DHT22;11748;50.844;4.396;2022-11-23T03:03:57;10.90;99.90
23160;DHT22;11748;50.844;4.396;2022-11-23T03:06:23;10.90;99.90
23160;DHT22;11748;50.844;4.396;2022-11-23T03:08:49;10.80;99.90
23160;DHT22;11748;50.844;4.396;2022-11-23T03:11:14;10.70;99.90
23160;DHT22;11748;50.844;4.396;2022-11-23T03:13:41;10.70;99.90
23160;DHT22;11748;50.844;4.396;2022-11-23T03:16:07;10.60;99.90
23160;DHT22;11748;50.844;4.396;2022-11-23T03:18:33;10.80;99.90
23160;DHT22;11748;50.844;4.396;2022-11-23T03:21:03;10.70;99.90
23160;DHT22;11748;50.844;4.396;2022-11-23T03:23:30;10.60;99.90
23160;DHT22;11748;50.844;4.396;2022-11-23T03:25:59;10.70;99.90
23160;DHT22;11748;50.844;4.396;2022-11-23T03:28:25;10.90;99.90
23160;DHT22;11748;50.844;4.396;2022-11-23T03:30:51;10.90;99.90
23160;DHT22;11748;50.844;4.396;2022-11-23T03:33:17;10.90;99.90
23160;DHT22;11748;50.844;4.396;2022-11-23T03:35:43;10.90;99.90
23160;DHT22;11748;50.844;4.396;2022-11-23T03:38:09;10.90;99.90
23160;DHT22;11748;50.844;4.396;2022-11-23T03:40:35;10.80;99.90
23160;DHT22;11748;50.844;4.396;2022-11-23T03:43:01;10.80;99.90
23160;DHT22;11748;50.844;4.396;2022-11-23T03:45:27;10.80;99.90
23160;DHT22;11748;50.844;4.396;2022-11-23T03:47:53;10.80;99.90
23160;DHT22;11748;50.844;4.396;2022-11-23T03:50:20;10.80;99.90
23160;DHT22;11748;50.844;4.396;2022-11-23T03:52:47;10.80;99.90
23160;DHT22;11748;50.844;4.396;2022-11-23T03:55:13;10.80;99.90
23160;DHT22;11748;50.844;4.396;2022-11-23T03:57:39;10.80;99.90
23160;DHT22;11748;50.844;4.396;2022-11-23T04:00:05;10.90;99.90
23160;DHT22;11748;50.844;4.396;2022-11-23T04:02:31;10.80;99.90
23160;DHT22;11748;50.844;4.396;2022-11-23T04:04:57;10.80;99.90
23160;DHT22;11748;50.844;4.396;2022-11-23T04:07:22;10.80;99.90
23160;DHT22;11748;50.844;4.396;2022-11-23T04:09:48;10.70;99.90
23160;DHT22;11748;50.844;4.396;2022-11-23T04:12:14;10.60;99.90
23160;DHT22;11748;50.844;4.396;2022-11-23T04:14:39;10.60;99.90
23160;DHT22;11748;50.844;4.396;2022-11-23T04:17:05;10.60;99.90
23160;DHT22;11748;50.844;4.396;2022-11-23T04:19:31;10.70;99.90
23160;DHT22;11748;50.844;4.396;2022-11-23T04:21:56;10.70;99.90
23160;DHT22;11748;50.844;4.396;2022-11-23T04:24:22;10.70;99.90
23160;DHT22;11748;50.844;4.396;2022-11-23T04:26:48;10.70;99.90
23160;DHT22;11748;50.844;4.396;2022-11-23T04:29:13;10.70;99.90
23160;DHT22;11748;50.844;4.396;2022-11-23T04:31:39;10.60;99.90
23160;DHT22;11748;50.844;4.396;2022-11-23T04:34:05;10.70;99.90
23160;DHT22;11748;50.844;4.396;2022-11-23T04:36:30;10.70;99.90
23160;DHT22;11748;50.844;4.396;2022-11-23T04:38:56;10.60;99.90
23160;DHT22;11748;50.844;4.396;2022-11-23T04:41:22;10.50;99.90
23160;DHT22;11748;50.844;4.396;2022-11-23T04:43:48;10.50;99.90
23160;DHT22;11748;50.844;4.396;2022-11-23T04:46:14;10.50;99.90
23160;DHT22;11748;50.844;4.396;2022-11-23T04:48:40;10.50;99.90
23160;DHT22;11748;50.844;4.396;2022-11-23T04:51:06;10.40;99.90
23160;DHT22;11748;50.844;4.396;2022-11-23T04:53:32;10.40;99.90
23160;DHT22;11748;50.844;4.396;2022-11-23T04:55:58;10.30;99.90
23160;DHT22;11748;50.844;4.396;2022-11-23T04:58:23;10.20;99.90
23160;DHT22;11748;50.844;4.396;2022-11-23T05:00:49;10.20;99.90
23160;DHT22;11748;50.844;4.396;2022-11-23T05:03:15;10.20;99.90
23160;DHT22;11748;50.844;4.396;2022-11-23T05:05:42;10.20;99.90
23160;DHT22;11748;50.844;4.396;2022-11-23T05:08:09;10.10;99.90
23160;DHT22;11748;50.844;4.396;2022-11-23T05:10:36;10.00;99.90
23160;DHT22;11748;50.844;4.396;2022-11-23T05:13:02;9.90;99.90
23160;DHT22;11748;50.844;4.396;2022-11-23T05:15:28;9.90;99.90
23160;DHT22;11748;50.844;4.396;2022-11-23T05:18:01;9.80;99.90
23160;DHT22;11748;50.844;4.396;2022-11-23T05:20:26;9.80;99.90
23160;DHT22;11748;50.844;4.396;2022-11-23T05:22:53;9.80;99.90
23160;DHT22;11748;50.844;4.396;2022-11-23T05:25:19;9.80;99.90
23160;DHT22;11748;50.844;4.396;2022-11-23T05:27:44;9.80;99.90
23160;DHT22;11748;50.844;4.396;2022-11-23T05:30:10;9.80;99.90
23160;DHT22;11748;50.844;4.396;2022-11-23T05:32:36;9.60;99.90
23160;DHT22;11748;50.844;4.396;2022-11-23T05:35:02;9.70;99.90
23160;DHT22;11748;50.844;4.396;2022-11-23T05:37:28;9.60;99.90
23160;DHT22;11748;50.844;4.396;2022-11-23T05:39:54;9.60;99.90
23160;DHT22;11748;50.844;4.396;2022-11-23T05:42:19;9.60;99.90
23160;DHT22;11748;50.844;4.396;2022-11-23T05:44:45;9.50;99.90
23160;DHT22;11748;50.844;4.396;2022-11-23T05:47:11;9.50;99.90
23160;DHT22;11748;50.844;4.396;2022-11-23T05:49:36;9.40;99.90
23160;DHT22;11748;50.844;4.396;2022-11-23T05:52:02;9.50;99.90
23160;DHT22;11748;50.844;4.396;2022-11-23T05:54:28;9.40;99.90
23160;DHT22;11748;50.844;4.396;2022-11-23T05:56:53;9.40;99.90
23160;DHT22;11748;50.844;4.396;2022-11-23T05:59:19;9.40;99.90
23160;DHT22;11748;50.844;4.396;2022-11-23T06:01:45;9.40;99.90
23160;DHT22;11748;50.844;4.396;2022-11-23T06:04:12;9.40;99.90
23160;DHT22;11748;50.844;4.396;2022-11-23T06:06:38;9.30;99.90
23160;DHT22;11748;50.844;4.396;2022-11-23T06:09:04;9.30;99.90
23160;DHT22;11748;50.844;4.396;2022-11-23T06:11:30;9.40;99.90
23160;DHT22;11748;50.844;4.396;2022-11-23T06:13:57;9.30;99.90
23160;DHT22;11748;50.844;4.396;2022-11-23T06:16:23;9.30;99.90
23160;DHT22;11748;50.844;4.396;2022-11-23T06:18:48;9.30;99.90
23160;DHT22;11748;50.844;4.396;2022-11-23T06:21:14;9.20;99.90
23160;DHT22;11748;50.844;4.396;2022-11-23T06:23:40;9.20;99.90
23160;DHT22;11748;50.844;4.396;2022-11-23T06:26:05;9.10;99.90
23160;DHT22;11748;50.844;4.396;2022-11-23T06:28:31;9.20;99.90
23160;DHT22;11748;50.844;4.396;2022-11-23T06:31:05;9.20;99.90
23160;DHT22;11748;50.844;4.396;2022-11-23T06:33:32;9.20;99.90
23160;DHT22;11748;50.844;4.396;2022-11-23T06:35:59;9.20;99.90
23160;DHT22;11748;50.844;4.396;2022-11-23T06:38:26;9.10;99.90
23160;DHT22;11748;50.844;4.396;2022-11-23T06:40:52;9.10;99.90
23160;DHT22;11748;50.844;4.396;2022-11-23T06:43:18;9.10;99.90
23160;DHT22;11748;50.844;4.396;2022-11-23T06:45:44;9.10;99.90
23160;DHT22;11748;50.844;4.396;2022-11-23T06:48:10;9.10;99.90
23160;DHT22;11748;50.844;4.396;2022-11-23T06:50:35;9.10;99.90
23160;DHT22;11748;50.844;4.396;2022-11-23T06:53:02;8.90;99.90
23160;DHT22;11748;50.844;4.396;2022-11-23T06:55:28;8.90;99.90
23160;DHT22;11748;50.844;4.396;2022-11-23T06:57:55;8.90;99.90
23160;DHT22;11748;50.844;4.396;2022-11-23T07:00:21;8.90;99.90
23160;DHT22;11748;50.844;4.396;2022-11-23T07:02:51;8.90;99.90
23160;DHT22;11748;50.844;4.396;2022-11-23T07:05:18;8.80;99.90
23160;DHT22;11748;50.844;4.396;2022-11-23T07:07:44;8.80;99.90
23160;DHT22;11748;50.844;4.396;2022-11-23T07:10:10;8.70;99.90
23160;DHT22;11748;50.844;4.396;2022-11-23T07:12:36;8.80;99.90
23160;DHT22;11748;50.844;4.396;2022-11-23T07:15:03;8.70;99.90
23160;DHT22;11748;50.844;4.396;2022-11-23T07:17:28;8.70;99.90
23160;DHT22;11748;50.844;4.396;2022-11-23T07:19:54;8.60;99.90
23160;DHT22;11748;50.844;4.396;2022-11-23T07:22:21;8.70;99.90
23160;DHT22;11748;50.844;4.396;2022-11-23T07:24:47;8.70;99.90
23160;DHT22;11748;50.844;4.396;2022-11-23T07:27:15;8.70;99.90
23160;DHT22;11748;50.844;4.396;2022-11-23T07:29:40;8.70;99.90
23160;DHT22;11748;50.844;4.396;2022-11-23T07:32:06;8.60;99.90
23160;DHT22;11748;50.844;4.396;2022-11-23T07:34:33;8.60;99.90
23160;DHT22;11748;50.844;4.396;2022-11-23T07:36:58;8.60;99.90
23160;DHT22;11748;50.844;4.396;2022-11-23T07:39:24;8.60;99.90
23160;DHT22;11748;50.844;4.396;2022-11-23T07:41:50;8.60;99.90
23160;DHT22;11748;50.844;4.396;2022-11-23T07:44:16;8.60;99.90
23160;DHT22;11748;50.844;4.396;2022-11-23T07:46:42;8.40;99.90
23160;DHT22;11748;50.844;4.396;2022-11-23T07:49:07;8.40;99.90
23160;DHT22;11748;50.844;4.396;2022-11-23T07:51:33;8.50;99.90
23160;DHT22;11748;50.844;4.396;2022-11-23T07:53:59;8.50;99.90
23160;DHT22;11748;50.844;4.396;2022-11-23T07:56:25;8.40;99.90
23160;DHT22;11748;50.844;4.396;2022-11-23T07:58:50;8.40;99.90
23160;DHT22;11748;50.844;4.396;2022-11-23T08:01:17;8.50;99.90
23160;DHT22;11748;50.844;4.396;2022-11-23T08:03:47;8.50;99.90
23160;DHT22;11748;50.844;4.396;2022-11-23T08:06:14;8.50;99.90
23160;DHT22;11748;50.844;4.396;2022-11-23T08:08:40;8.60;99.90
23160;DHT22;11748;50.844;4.396;2022-11-23T08:11:07;8.60;99.90
23160;DHT22;11748;50.844;4.396;2022-11-23T08:13:34;8.50;99.90
23160;DHT22;11748;50.844;4.396;2022-11-23T08:16:01;8.60;99.90
23160;DHT22;11748;50.844;4.396;2022-11-23T08:18:28;8.60;99.90
23160;DHT22;11748;50.844;4.396;2022-11-23T08:20:57;8.70;99.90
23160;DHT22;11748;50.844;4.396;2022-11-23T08:23:23;8.80;99.90
23160;DHT22;11748;50.844;4.396;2022-11-23T08:25:50;8.80;99.90
23160;DHT22;11748;50.844;4.396;2022-11-23T08:28:15;8.90;99.90
23160;DHT22;11748;50.844;4.396;2022-11-23T08:30:41;9.00;99.90
23160;DHT22;11748;50.844;4.396;2022-11-23T08:33:08;9.20;99.90
23160;DHT22;11748;50.844;4.396;2022-11-23T08:35:37;9.20;99.90
23160;DHT22;11748;50.844;4.396;2022-11-23T08:38:04;9.20;99.90
23160;DHT22;11748;50.844;4.396;2022-11-23T08:40:30;9.20;99.90
23160;DHT22;11748;50.844;4.396;2022-11-23T08:42:56;9.30;99.90
23160;DHT22;11748;50.844;4.396;2022-11-23T08:45:22;9.30;99.90
23160;DHT22;11748;50.844;4.396;2022-11-23T08:47:48;9.40;99.90
23160;DHT22;11748;50.844;4.396;2022-11-23T08:50:15;9.20;99.90
23160;DHT22;11748;50.844;4.396;2022-11-23T08:52:41;9.30;99.90
23160;DHT22;11748;50.844;4.396;2022-11-23T08:55:07;9.30;99.90
23160;DHT22;11748;50.844;4.396;2022-11-23T08:57:33;9.30;99.90
23160;DHT22;11748;50.844;4.396;2022-11-23T08:59:59;9.40;99.90
23160;DHT22;11748;50.844;4.396;2022-11-23T09:02:25;9.50;99.90
23160;DHT22;11748;50.844;4.396;2022-11-23T09:04:51;9.50;99.90
23160;DHT22;11748;50.844;4.396;2022-11-23T09:07:17;9.60;99.90
23160;DHT22;11748;50.844;4.396;2022-11-23T09:09:43;9.70;99.90
23160;DHT22;11748;50.844;4.396;2022-11-23T09:12:09;9.80;99.90
23160;DHT22;11748;50.844;4.396;2022-11-23T09:14:34;10.00;99.90
23160;DHT22;11748;50.844;4.396;2022-11-23T09:17:00;10.10;99.90
23160;DHT22;11748;50.844;4.396;2022-11-23T09:19:26;10.10;99.90
23160;DHT22;11748;50.844;4.396;2022-11-23T09:21:52;10.20;99.90
23160;DHT22;11748;50.844;4.396;2022-11-23T09:24:19;10.10;99.90
23160;DHT22;11748;50.844;4.396;2022-11-23T09:26:46;10.10;99.90
23160;DHT22;11748;50.844;4.396;2022-11-23T09:29:12;10.20;99.90
23160;DHT22;11748;50.844;4.396;2022-11-23T09:31:37;10.10;99.90
23160;DHT22;11748;50.844;4.396;2022-11-23T09:34:03;10.00;99.90
23160;DHT22;11748;50.844;4.396;2022-11-23T09:36:29;10.00;99.90
23160;DHT22;11748;50.844;4.396;2022-11-23T09:38:56;10.00;99.90
23160;DHT22;11748;50.844;4.396;2022-11-23T09:50:02;10.20;99.90
23160;DHT22;11748;50.844;4.396;2022-11-23T09:52:35;10.30;99.90
23160;DHT22;11748;50.844;4.396;2022-11-23T09:55:18;10.40;99.90
23160;DHT22;11748;50.844;4.396;2022-11-23T09:57:46;10.30;99.90
23160;DHT22;11748;50.844;4.396;2022-11-23T10:00:21;10.30;99.90
23160;DHT22;11748;50.844;4.396;2022-11-23T10:02:47;10.40;99.90
23160;DHT22;11748;50.844;4.396;2022-11-23T10:05:17;10.40;99.90
23160;DHT22;11748;50.844;4.396;2022-11-23T10:10:37;10.60;99.90
23160;DHT22;11748;50.844;4.396;2022-11-23T10:13:33;10.60;99.90
23160;DHT22;11748;50.844;4.396;2022-11-23T10:24:23;10.30;99.90
23160;DHT22;11748;50.844;4.396;2022-11-23T10:26:53;10.30;99.90
23160;DHT22;11748;50.844;4.396;2022-11-23T10:29:29;10.40;99.90
23160;DHT22;11748;50.844;4.396;2022-11-23T10:31:56;10.40;99.90
23160;DHT22;11748;50.844;4.396;2022-11-23T10:37:11;10.50;99.90
23160;DHT22;11748;50.844;4.396;2022-11-23T10:39:37;10.50;99.90
23160;DHT22;11748;50.844;4.396;2022-11-23T10:44:44;10.60;99.90
23160;DHT22;11748;50.844;4.396;2022-11-23T10:47:39;10.60;99.90
23160;DHT22;11748;50.844;4.396;2022-11-23T10:53:17;10.60;99.90
23160;DHT22;11748;50.844;4.396;2022-11-23T10:55:59;10.70;99.90
23160;DHT22;11748;50.844;4.396;2022-11-23T10:58:46;10.80;99.90
23160;DHT22;11748;50.844;4.396;2022-11-23T11:01:21;10.80;99.90
23160;DHT22;11748;50.844;4.396;2022-11-23T11:03:53;10.90;99.90
23160;DHT22;11748;50.844;4.396;2022-11-23T11:06:28;11.00;99.90
23160;DHT22;11748;50.844;4.396;2022-11-23T11:09:04;11.10;99.90
23160;DHT22;11748;50.844;4.396;2022-11-23T11:11:46;11.10;99.90
23160;DHT22;11748;50.844;4.396;2022-11-23T11:14:20;11.20;99.90
23160;DHT22;11748;50.844;4.396;2022-11-23T11:16:50;11.20;99.90
23160;DHT22;11748;50.844;4.396;2022-11-23T11:19:35;11.20;99.90
23160;DHT22;11748;50.844;4.396;2022-11-23T11:22:31;11.40;99.90
23160;DHT22;11748;50.844;4.396;2022-11-23T11:24:57;11.60;99.90
23160;DHT22;11748;50.844;4.396;2022-11-23T11:27:25;11.60;99.90
23160;DHT22;11748;50.844;4.396;2022-11-23T11:30:06;11.70;99.90
23160;DHT22;11748;50.844;4.396;2022-11-23T11:35:34;11.50;99.90
23160;DHT22;11748;50.844;4.396;2022-11-23T11:40:48;11.70;99.90
23160;DHT22;11748;50.844;4.396;2022-11-23T11:43:22;11.90;99.90
23160;DHT22;11748;50.844;4.396;2022-11-23T11:45:52;11.80;99.90
23160;DHT22;11748;50.844;4.396;2022-11-23T11:48:35;11.90;99.90
23160;DHT22;11748;50.844;4.396;2022-11-23T11:53:56;11.90;99.90
23160;DHT22;11748;50.844;4.396;2022-11-23T11:56:35;12.00;99.90
23160;DHT22;11748;50.844;4.396;2022-11-23T12:01:39;12.20;99.90
23160;DHT22;11748;50.844;4.396;2022-11-23T12:04:13;12.20;99.90
23160;DHT22;11748;50.844;4.396;2022-11-23T12:06:45;12.20;99.90
23160;DHT22;11748;50.844;4.396;2022-11-23T12:09:16;12.20;99.90
23160;DHT22;11748;50.844;4.396;2022-11-23T12:11:43;12.10;99.90
23160;DHT22;11748;50.844;4.396;2022-11-23T12:14:12;12.10;99.90
23160;DHT22;11748;50.844;4.396;2022-11-23T12:27:48;12.10;99.90
23160;DHT22;11748;50.844;4.396;2022-11-23T12:30:26;11.90;99.90
23160;DHT22;11748;50.844;4.396;2022-11-23T12:38:29;11.80;99.90
23160;DHT22;11748;50.844;4.396;2022-11-23T12:41:13;11.70;99.90
23160;DHT22;11748;50.844;4.396;2022-11-23T12:44:06;11.60;99.90
23160;DHT22;11748;50.844;4.396;2022-11-23T12:46:44;11.50;99.90
23160;DHT22;11748;50.844;4.396;2022-11-23T12:52:00;11.30;99.90
23160;DHT22;11748;50.844;4.396;2022-11-23T12:54:39;11.30;99.90
23160;DHT22;11748;50.844;4.396;2022-11-23T13:00:01;11.20;99.90
23160;DHT22;11748;50.844;4.396;2022-11-23T13:19:12;10.70;99.90
23160;DHT22;11748;50.844;4.396;2022-11-23T13:21:43;10.70;99.90
23160;DHT22;11748;50.844;4.396;2022-11-23T13:30:39;10.50;99.90
23160;DHT22;11748;50.844;4.396;2022-11-23T13:35:50;10.40;99.90
23160;DHT22;11748;50.844;4.396;2022-11-23T13:38:26;10.30;99.90
23160;DHT22;11748;50.844;4.396;2022-11-23T13:40:54;10.40;99.90
23160;DHT22;11748;50.844;4.396;2022-11-23T13:57:34;10.30;99.90
23160;DHT22;11748;50.844;4.396;2022-11-23T14:09:44;10.30;99.90
23160;DHT22;11748;50.844;4.396;2022-11-23T14:17:57;10.30;99.90
23160;DHT22;11748;50.844;4.396;2022-11-23T14:23:31;10.20;99.90
23160;DHT22;11748;50.844;4.396;2022-11-23T14:34:38;10.30;99.90
23160;DHT22;11748;50.844;4.396;2022-11-23T14:37:35;10.20;99.90
23160;DHT22;11748;50.844;4.396;2022-11-23T14:42:55;10.20;99.90
23160;DHT22;11748;50.844;4.396;2022-11-23T14:45:27;10.30;99.90
23160;DHT22;11748;50.844;4.396;2022-11-23T14:47:56;10.30;99.90
23160;DHT22;11748;50.844;4.396;2022-11-23T14:50:27;10.30;99.90
23160;DHT22;11748;50.844;4.396;2022-11-23T14:52:59;10.30;99.90
23160;DHT22;11748;50.844;4.396;2022-11-23T14:55:29;10.30;99.90
23160;DHT22;11748;50.844;4.396;2022-11-23T14:58:03;10.40;99.90
23160;DHT22;11748;50.844;4.396;2022-11-23T15:00:36;10.40;99.90
23160;DHT22;11748;50.844;4.396;2022-11-23T15:03:12;10.50;99.90
23160;DHT22;11748;50.844;4.396;2022-11-23T15:05:51;10.50;99.90
23160;DHT22;11748;50.844;4.396;2022-11-23T15:10:56;10.50;99.90
23160;DHT22;11748;50.844;4.396;2022-11-23T15:13:26;10.60;99.90
23160;DHT22;11748;50.844;4.396;2022-11-23T15:15:55;10.60;99.90
23160;DHT22;11748;50.844;4.396;2022-11-23T15:18:33;10.60;99.90
23160;DHT22;11748;50.844;4.396;2022-11-23T15:24:02;10.60;99.90
23160;DHT22;11748;50.844;4.396;2022-11-23T15:26:30;10.60;99.90
23160;DHT22;11748;50.844;4.396;2022-11-23T15:28:57;10.70;99.90
23160;DHT22;11748;50.844;4.396;2022-11-23T15:31:35;10.70;99.90
23160;DHT22;11748;50.844;4.396;2022-11-23T15:34:14;10.70;99.90
23160;DHT22;11748;50.844;4.396;2022-11-23T15:36:42;10.70;99.90
23160;DHT22;11748;50.844;4.396;2022-11-23T15:39:18;10.70;99.90
23160;DHT22;11748;50.844;4.396;2022-11-23T15:41:46;10.60;99.90
23160;DHT22;11748;50.844;4.396;2022-11-23T15:46:46;10.40;99.90
23160;DHT22;11748;50.844;4.396;2022-11-23T15:49:15;10.40;99.90
23160;DHT22;11748;50.844;4.396;2022-11-23T15:51:43;10.40;99.90
23160;DHT22;11748;50.844;4.396;2022-11-23T15:54:21;10.30;99.90
23160;DHT22;11748;50.844;4.396;2022-11-23T15:56:49;10.30;99.90
23160;DHT22;11748;50.844;4.396;2022-11-23T15:59:30;10.30;99.90
23160;DHT22;11748;50.844;4.396;2022-11-23T16:01:59;10.30;99.90
23160;DHT22;11748;50.844;4.396;2022-11-23T16:06:54;10.20;99.90
23160;DHT22;11748;50.844;4.396;2022-11-23T16:09:41;10.20;99.90
23160;DHT22;11748;50.844;4.396;2022-11-23T16:12:29;10.20;99.90
23160;DHT22;11748;50.844;4.396;2022-11-23T16:14:57;10.10;99.90
23160;DHT22;11748;50.844;4.396;2022-11-23T16:17:28;10.00;99.90
23160;DHT22;11748;50.844;4.396;2022-11-23T16:20:00;9.90;99.90
23160;DHT22;11748;50.844;4.396;2022-11-23T16:22:35;9.90;99.90
23160;DHT22;11748;50.844;4.396;2022-11-23T16:25:15;9.80;99.90
23160;DHT22;11748;50.844;4.396;2022-11-23T16:28:05;9.90;99.90
23160;DHT22;11748;50.844;4.396;2022-11-23T16:30:41;9.90;99.90
23160;DHT22;11748;50.844;4.396;2022-11-23T16:33:17;10.00;99.90
23160;DHT22;11748;50.844;4.396;2022-11-23T16:35:43;9.90;99.90
23160;DHT22;11748;50.844;4.396;2022-11-23T16:38:09;9.80;99.90
23160;DHT22;11748;50.844;4.396;2022-11-23T16:40:37;9.70;99.90
23160;DHT22;11748;50.844;4.396;2022-11-23T16:43:04;9.60;99.90
23160;DHT22;11748;50.844;4.396;2022-11-23T16:45:30;9.40;99.90
23160;DHT22;11748;50.844;4.396;2022-11-23T16:47:58;9.30;99.90
23160;DHT22;11748;50.844;4.396;2022-11-23T16:50:32;9.40;99.90
23160;DHT22;11748;50.844;4.396;2022-11-23T16:53:11;9.40;99.90
23160;DHT22;11748;50.844;4.396;2022-11-23T16:55:38;9.40;99.90
23160;DHT22;11748;50.844;4.396;2022-11-23T16:58:04;9.60;99.90
23160;DHT22;11748;50.844;4.396;2022-11-23T17:00:30;9.60;99.90
23160;DHT22;11748;50.844;4.396;2022-11-23T17:02:59;9.60;99.90
23160;DHT22;11748;50.844;4.396;2022-11-23T17:05:24;9.60;99.90
23160;DHT22;11748;50.844;4.396;2022-11-23T17:07:51;9.70;99.90
23160;DHT22;11748;50.844;4.396;2022-11-23T17:10:17;9.80;99.90
23160;DHT22;11748;50.844;4.396;2022-11-23T17:12:48;9.80;99.90
23160;DHT22;11748;50.844;4.396;2022-11-23T17:15:18;9.90;99.90
23160;DHT22;11748;50.844;4.396;2022-11-23T17:17:44;9.90;99.90
23160;DHT22;11748;50.844;4.396;2022-11-23T17:20:14;9.90;99.90
23160;DHT22;11748;50.844;4.396;2022-11-23T17:22:40;9.90;99.90
23160;DHT22;11748;50.844;4.396;2022-11-23T17:25:10;9.80;99.90
23160;DHT22;11748;50.844;4.396;2022-11-23T17:27:38;9.80;99.90
23160;DHT22;11748;50.844;4.396;2022-11-23T17:30:19;9.60;99.90
23160;DHT22;11748;50.844;4.396;2022-11-23T17:32:49;9.60;99.90
23160;DHT22;11748;50.844;4.396;2022-11-23T17:35:16;9.70;99.90
23160;DHT22;11748;50.844;4.396;2022-11-23T17:37:42;9.80;99.90
23160;DHT22;11748;50.844;4.396;2022-11-23T17:40:17;9.80;99.90
23160;DHT22;11748;50.844;4.396;2022-11-23T17:42:44;9.90;99.90
23160;DHT22;11748;50.844;4.396;2022-11-23T17:45:10;10.00;99.90
23160;DHT22;11748;50.844;4.396;2022-11-23T17:47:36;10.00;99.90
23160;DHT22;11748;50.844;4.396;2022-11-23T17:50:03;9.80;99.90
23160;DHT22;11748;50.844;4.396;2022-11-23T17:52:30;9.90;99.90
23160;DHT22;11748;50.844;4.396;2022-11-23T17:54:56;10.00;99.90
23160;DHT22;11748;50.844;4.396;2022-11-23T17:57:23;9.90;99.90
23160;DHT22;11748;50.844;4.396;2022-11-23T17:59:49;9.90;99.90
23160;DHT22;11748;50.844;4.396;2022-11-23T18:02:15;9.80;99.90
23160;DHT22;11748;50.844;4.396;2022-11-23T18:04:41;9.90;99.90
23160;DHT22;11748;50.844;4.396;2022-11-23T18:07:09;10.00;99.90
23160;DHT22;11748;50.844;4.396;2022-11-23T18:09:37;10.00;99.90
23160;DHT22;11748;50.844;4.396;2022-11-23T18:12:02;10.10;99.90
23160;DHT22;11748;50.844;4.396;2022-11-23T18:14:28;10.10;99.90
23160;DHT22;11748;50.844;4.396;2022-11-23T18:16:55;10.10;99.90